Kimper, KY (41539)

01:47 PM EDT em 01 de Abril de 2015 (GMT -0400)
East Kentucky Broadcasting | | Change Station
CLOSE
Current Station
Estação Meteorológica Particular
Location: Pikeville, KY
Altitude: 686 ft
Estações Meteorológicas Próximas

Elev 686 ft 37.48 °N, 82.52 °W | Updated 4 seconds ago

Céu Limpo
Céu Limpo
70.3 °F
Aparente 74 °F
N
5.6
Vento Variável Vento de ENE
Gusts 5.6 mph

Hoje
Máxima -- | Mínima -- °F
--% Possibilidade de Precip.
Ontem
Máxima -- | Mínima -- °F
Precip. -- pol
7:15 AM 7:51 PM
Lua crescente, 93% visible
Pressão 30.17 pol
Visibilidade 10.0 milhas
Nuvens Céu Limpo
Índice de Calor 74 °F
Ponto de Orvalho 24 °F
Humidade 17%
Chuva 0.00 pol
Altura de Neve Não disponível
UV 9 em vez de 12
Pólen 9.90 em vez de 12
Qualidade do Ar Não disponível
Flu Activity Não disponível
METAR KSJS 011735Z AUTO 00000KT 10SM CLR 15/M03 A3017 RMK AO2 T01541030

More Conditions Fewer Conditions

Pressão 30.17 pol
Visibilidade 10.0 milhas
Nuvens Céu Limpo
Índice de Calor 74 °F
Ponto de Orvalho 24 °F
Humidade 17%
Chuva 0.00 pol
Altura de Neve Não disponível
UV 9 em vez de 12
Pólen 9.90 em vez de 12
Qualidade do Ar Não disponível
Flu Activity Não disponível
METAR KSJS 011735Z AUTO 00000KT 10SM CLR 15/M03 A3017 RMK AO2 T01541030

More Conditions Fewer Conditions

10-Day Weather Forecast

Almanac

Astronomia

Apr. 01, 2015 Nascer Pôr
Hora atual
Crepúsculo civil
Crepúsculo náutico
Crepúsculo astronómico
Lua
Comprimento da luz visível
Duração do Dia
Tomorrow will be .
, % of the Moon is Illuminated

Extremos de Hoje

situação na parte mais alta situação na parte mais baixa

Community

WunderPhotos

Upload Photos

1,810,018 fotografias inseridas!

WunderBlogs® & News

Nearby

Qualidade do Ar

  Qualidade do Ar Índice da Q.A. Poluente
Not available.

Altura da Neve

Estação altura Altitude

Actividade Sísmisca

Cidade Distância Mag. Hora & Data
Mínima magnitude apresentada é 2.5.

Temperaturas das Águas Costeiras

Local Temperatura

Stations

Estações Meteorológicas Próximas

Localização da Estação Temp. Sensação Térmica Ponto de Orvalho Humidade Vento Precip. Elev Actualizado Tipo